Historyczne dane pomiarowe

Dodano dane terminowe – wersja testowa.

Dane z okresu 1951-2019

Wersja bazy: 1.34 [2019-03-16, lista zmian], aktualizacja planowana na 2019-04-15

Dane meteo z obszaru Polski uzyskane na podstawie danych udostępnionych przez Instytut Meteorologii i Gospodarki Wodnej – Państwowy Instytut Badawczy.

 

Wybierz Datę:    

       

TemperaturaWilgotnośćWiatrCiśnienieOpadyŚniegCzas trwania zjawisk
 Stacja t tx tn tng RH VA  wxwx mslp ppp RRR   cm mm wxwxwxwxwxwxwx
1962-02-14 -2.9 -0.6 -5.7--- 8.0 1.0---- 0.0-- 10---------
1962-02-15 -5.9 -0.6 -8.7--- 6.7 10.3---- 0.0-- 10---------
1962-02-16 -3.1 0.5-13.9--- 6.3 12.0---- 0.7-- 10---------
1962-02-17 -0.4 1.9 -2.7--- 8.0 7.0---- 1.0-- 15---------
1962-02-18 -3.4 -1.7 -7.7--- 8.0 7.3---- 0.0-- 15---------
1962-02-19 -2.7 -0.7 -6.6--- 5.0 0.7---- 1.9-- 15---------
1962-02-20 2.0 2.3 -3.2--- 8.0 1.7---- 1.5-- 13---------
1962-02-21 -2.4 2.3 -4.3--- 8.0 5.3---- 0.2-- 12---------
1962-02-22 -5.4 -3.7 -6.7--- 7.3 1.0---- 0.1-- 12---------
1962-02-23 -8.0 -5.8-10.8--- 8.0 0.7---- 0.5-- 16---------
1962-02-24 -7.1 -5.7 -9.3--- 5.0 1.3---- 0.5-- 17---------
1962-02-25 -6.5 -4.1-12.5--- 8.0 2.0---- 1.3-- 17---------
1962-02-26 -3.7 -2.4 -4.7--- 8.0 2.7---- 0.0-- 18---------
1962-02-27 -6.7 -4.3 -9.2--- 5.3 1.3---- 0.0-- 19---------
1962-02-28 -6.7 -4.5-13.1--- 5.3 1.3---- 0.0-- 19---------
1962-03-01 -3.9 -2.6 -6.3--- 8.0 1.0---- 0.0-- 19---------
1962-03-02 -4.8 -3.2 -7.2--- 7.7 0.3---- 0.0-- 19---------
1962-03-03 -2.8 0.5 -9.6--- 2.7 0.7---- 0.0-- 19---------
1962-03-04 2.8 4.0 -3.8--- 7.0 1.3---- 2.2-- 19---------
1962-03-05 5.8 8.4 -1.8--- 6.7 0.0---- 0.1-- 15---------
1962-03-06 2.4 8.6 -0.7--- 7.3 4.3---- 0.2------------
1962-03-07 -1.7 0.0 -2.7--- 8.0 2.7---- 3.5------------
1962-03-08 -2.3 -0.2 -5.5--- 1.3 0.7---- 0.0------------
1962-03-09 -2.4 -1.2 -4.7--- 4.7 1.7---- 0.0------------
1962-03-10 -2.1 0.4 -7.0--- 6.0 8.3---- 0.0------------
1962-03-11 2.7 6.5 -7.0--- 6.3 2.0---- 0.0------------
1962-03-12 1.1 3.0 -0.2--- 8.0 1.0---- 6.8------------
1962-03-13 -3.5 0.3 -5.0--- 7.7 6.7---- 0.0-- 5---------
1962-03-14 -7.3 -3.7 -8.7--- 5.3 2.0---- 0.0------------
1962-03-15 -6.7 -5.5 -8.9--- 8.0 1.3---- 0.2------------
419.2 ms

 

Źródłem pochodzenia danych jest Instytut Meteorologii i Gospodarki Wodnej – Państwowy Instytut Badawczy. Dane Instytutu Meteorologii i Gospodarki Wodnej – Państwowego Instytutu Badawczego zostały przetworzone.

Dane źródłowe można odnaleźć na stronie https://dane.imgw.pl